Flight Track Log - Related Links

Times and Time Zones

All times are in EDT time to prevent confusion due to time zone crossing. See the AFL1227 flight status page for this flight to view local times or setup timezone preferences in your user account.


Time Position Orientation Groundspeed Altitude Reporting Facility
EDT Latitude Longitude Course Direction KTS MPH feet Rate Location/Type
Thu 10:28:00 AM 56.1111 41.8317 269° West  Level Estimated
Thu 10:29:00 AM 56.1090 41.6808 269° West  Level Estimated
Thu 10:30:00 AM 56.1067 41.5299 268° West  Level Estimated
Thu 10:31:00 AM 56.1042 41.3790 268° West  Level Estimated
Thu 10:32:00 AM 56.1015 41.2282 268° West  Level Estimated
Thu 10:33:00 AM 56.0987 41.0773 268° West  Level Estimated
Thu 10:34:00 AM 56.0956 40.9265 268° West  Level Estimated
Thu 10:35:00 AM 56.0924 40.7757 268° West  Level Estimated
Thu 10:36:00 AM 56.0890 40.6249 268° West  Level Estimated
Thu 10:37:00 AM 56.0854 40.4742 268° West  Level Estimated
Thu 10:38:00 AM 56.0817 40.3235 267° West  Level Estimated
Thu 10:39:00 AM 56.0766 40.1306 267° West  Level Estimated
Thu 10:40:00 AM 56.0712 39.9377 267° West  Level Estimated
Thu 10:41:00 AM 56.0655 39.7449 267° West  Level Estimated
Thu 10:42:00 AM 56.0595 39.5522 267° West  Level Estimated
Thu 10:43:00 AM 56.0532 39.3595 267° West  Level Estimated
Thu 10:44:00 AM 56.0466 39.1669 267° West  Level Estimated
Thu 10:45:00 AM 56.0397 38.9743 266° West  Level Estimated
Thu 10:46:00 AM 56.0325 38.7818 266° West  Level Estimated
Thu 10:47:00 AM 56.0250 38.5894 266° West  Level Estimated
Thu 10:48:00 AM 56.0172 38.3971 266° West  Level Estimated
Thu 10:49:00 AM 56.0091 38.2048 266° West  Level Estimated
Thu 10:50:00 AM 56.0007 38.0126 266° West  Level Estimated
Thu 10:51:00 AM 55.9920 37.8205 265° West  Level Estimated
Thu 10:52:00 AM 55.9830 37.6286 265° West  Level Estimated
Thu 10:53:00 AM 55.9737 37.4366 265° West  Level Estimated
Thu 10:54:00 AM 55.9726 37.4146 265° West  Level Estimated
Thu 10:55:00 AM 55.9726 37.4146 North  Level Estimated
Thu 10:56:00 AM 55.9726 37.4146 North  Level Estimated
Thu 10:57:00 AM 55.9726 37.4146 North  Level Estimated
Thu 10:58:00 AM 55.9726 37.4146 North  Level Estimated
Thu 10:59:00 AM 55.9726 37.4146 North  Level Estimated
Thu 11:00:00 AM 55.9726 37.4146 North  Level Estimated
Thu 11:01:00 AM 55.9726 37.4146 North  Level Estimated
Thu 11:02:00 AM 55.9726 37.4146 North  Level Estimated
Thu 11:03:00 AM 55.9726 37.4146 North  Level Estimated
Thu 11:04:00 AM 55.9726 37.4146 North  Level Estimated
Thu 11:05:00 AM 55.9726 37.4146 North  Level Estimated
Thu 11:06:00 AM 55.9726 37.4146 North  Level Estimated
Thu 11:07:00 AM 55.9726 37.4146 North  Level Estimated
Thu 11:08:00 AM 55.9726 37.4146 North  Level Estimated
Thu 11:09:00 AM 55.9726 37.4146 North  Level Estimated

Login

Don't have an account? Register now (free) for customized features, flight alerts, and more!